Time;durP1;ratioP1;P1;durP2;ratioP2;P2;SDS_P1;SDS_P2;PMS_P1;PMS_P2;Temp;Humidity;BMP_temperature;BMP_pressure;BME280_temperature;BME280_humidity;BME280_pressure;Samples;Min_cycle;Max_cycle;Signal;HPM_P1;HPM_P2
2023/01/19 00:01:56;;;;;;;12.33;8.33;;;-1.70;99.90;;;;;;5001096;28;20248;-88
2023/01/19 00:04:22;;;;;;;12.27;7.87;;;-1.60;99.90;;;;;;5017559;28;20175;-88
2023/01/19 00:06:48;;;;;;;14.50;8.83;;;-1.70;99.90;;;;;;5001369;28;20590;-89
2023/01/19 00:09:13;;;;;;;15.50;8.97;;;-1.80;99.90;;;;;;5001307;28;20200;-88
2023/01/19 00:11:39;;;;;;;12.47;7.83;;;-1.70;99.90;;;;;;5006934;28;20210;-88
2023/01/19 00:14:10;;;;;;;10.53;7.77;;;-1.70;99.90;;;;;;5015647;28;20175;-87
2023/01/19 00:16:36;;;;;;;12.40;7.80;;;-1.80;99.90;;;;;;5014023;28;20633;-87
2023/01/19 00:19:02;;;;;;;12.53;8.40;;;-1.70;99.90;;;;;;4997695;28;20184;-88
2023/01/19 00:21:28;;;;;;;16.37;9.27;;;-1.70;99.90;;;;;;5014291;28;20215;-88
2023/01/19 00:23:53;;;;;;;12.60;8.23;;;-1.70;99.90;;;;;;4997629;28;20183;-88
2023/01/19 00:26:20;;;;;;;12.03;8.60;;;-1.80;99.90;;;;;;5007477;28;20209;-87
2023/01/19 00:28:48;;;;;;;11.90;7.60;;;-1.70;99.90;;;;;;5016944;28;20182;-88
2023/01/19 00:31:14;;;;;;;12.43;8.50;;;-1.70;99.90;;;;;;5000767;28;20206;-88
2023/01/19 00:33:40;;;;;;;12.73;8.30;;;-1.80;99.90;;;;;;5017322;28;20182;-89
2023/01/19 00:36:06;;;;;;;11.73;8.43;;;-1.80;99.90;;;;;;5034928;28;20181;-89
2023/01/19 00:38:32;;;;;;;13.13;8.70;;;-1.80;99.90;;;;;;5017323;28;20273;-89
2023/01/19 00:40:58;;;;;;;12.83;8.90;;;-1.80;99.90;;;;;;5000553;28;20306;-89
2023/01/19 00:43:23;;;;;;;11.93;7.97;;;-1.90;99.90;;;;;;5017127;28;20229;-89
2023/01/19 00:45:49;;;;;;;13.93;8.43;;;-1.90;99.90;;;;;;5017130;28;20305;-89
2023/01/19 00:48:15;;;;;;;11.93;8.23;;;-1.90;99.90;;;;;;5016986;28;20228;-89
2023/01/19 00:50:41;;;;;;;12.37;8.50;;;-1.80;99.90;;;;;;5016610;28;20186;-91
2023/01/19 00:53:07;;;;;;;14.00;8.33;;;-1.90;99.90;;;;;;5034735;28;20163;-88
2023/01/19 00:55:33;;;;;;;15.37;8.37;;;-1.80;99.90;;;;;;4999815;28;20178;-88
2023/01/19 00:57:59;;;;;;;14.90;8.70;;;-1.90;99.90;;;;;;5000451;28;20183;-88
2023/01/19 01:00:25;;;;;;;15.50;8.90;;;-1.90;99.90;;;;;;5000215;28;20264;-89
2023/01/19 01:02:52;;;;;;;17.07;10.43;;;-1.80;99.90;;;;;;5016698;28;20258;-90
2023/01/19 01:05:19;;;;;;;15.30;10.17;;;-1.80;99.90;;;;;;5000030;28;20174;-90
2023/01/19 01:07:45;;;;;;;19.30;12.47;;;-1.90;99.90;;;;;;5000167;28;20190;-90
2023/01/19 01:10:19;;;;;;;18.50;11.57;;;-1.90;99.90;;;;;;5009018;28;20202;-91
2023/01/19 01:12:46;;;;;;;15.50;9.67;;;-2.00;99.90;;;;;;5013220;28;20203;-91
2023/01/19 01:15:13;;;;;;;15.73;9.33;;;-2.00;99.90;;;;;;4997310;28;20186;-90
2023/01/19 01:17:46;;;;;;;14.63;9.73;;;-2.10;99.90;;;;;;4980667;28;20190;-92
2023/01/19 01:20:26;;;;;;;14.43;10.20;;;-2.10;99.90;;;;;;4996579;28;20294;-91
2023/01/19 01:22:53;;;;;;;13.70;9.77;;;-2.10;99.90;;;;;;5013023;28;20186;-92
2023/01/19 01:25:24;;;;;;;13.67;8.40;;;-2.20;99.90;;;;;;4996476;28;20180;-92
2023/01/19 01:27:50;;;;;;;12.00;7.97;;;-2.20;99.90;;;;;;4996428;28;20210;-92
2023/01/19 01:30:17;;;;;;;12.93;7.83;;;-2.30;99.90;;;;;;5027344;28;20210;-92
2023/01/19 01:32:43;;;;;;;13.87;8.83;;;-2.30;99.90;;;;;;5007404;23;20211;-88
2023/01/19 01:35:09;;;;;;;12.97;8.23;;;-2.40;99.90;;;;;;5033254;28;20183;-89
2023/01/19 01:37:36;;;;;;;13.53;9.07;;;-2.40;99.90;;;;;;5032704;28;20175;-89
2023/01/19 01:40:03;;;;;;;13.43;9.37;;;-2.40;99.90;;;;;;5015937;28;20633;-89
2023/01/19 01:42:31;;;;;;;13.83;9.10;;;-2.40;99.90;;;;;;5023049;28;20225;-89
2023/01/19 01:44:59;;;;;;;13.97;8.87;;;-2.40;99.90;;;;;;4996159;28;20191;-88
2023/01/19 01:47:27;;;;;;;15.43;8.93;;;-2.50;99.90;;;;;;5028227;28;20307;-89
2023/01/19 01:50:06;;;;;;;13.40;8.30;;;-2.40;99.90;;;;;;5033094;28;20193;-89
2023/01/19 01:52:35;;;;;;;15.20;9.17;;;-2.50;99.90;;;;;;5016518;28;20289;-89
2023/01/19 01:55:02;;;;;;;13.40;8.87;;;-2.50;99.90;;;;;;5000017;28;20182;-88
2023/01/19 01:57:29;;;;;;;15.90;9.07;;;-2.50;99.90;;;;;;5016496;28;20186;-89
2023/01/19 01:59:57;;;;;;;11.50;8.13;;;-2.50;99.90;;;;;;5015934;28;20222;-89
2023/01/19 02:05:19;;;;;;;14.03;8.77;;;-2.50;99.90;;;;;;5033453;28;20187;-89
2023/01/19 02:13:19;;;;;;;14.07;8.87;;;-2.50;99.90;;;;;;5012542;28;20203;-89
2023/01/19 02:15:54;;;;;;;15.43;8.87;;;-2.60;99.90;;;;;;5025587;28;20182;-89
2023/01/19 02:18:22;;;;;;;14.10;8.93;;;-2.60;99.90;;;;;;5015718;28;20544;-89
2023/01/19 02:21:09;;;;;;;15.80;9.20;;;-2.60;99.90;;;;;;5015840;28;20203;-89
2023/01/19 02:23:42;;;;;;;14.47;8.40;;;-2.70;99.90;;;;;;5016060;28;20202;-89
2023/01/19 02:26:12;;;;;;;14.27;8.60;;;-2.70;99.90;;;;;;5015496;28;20202;-89
2023/01/19 02:28:41;;;;;;;15.23;9.10;;;-2.70;99.90;;;;;;5018110;28;20198;-89
2023/01/19 02:31:07;;;;;;;15.67;9.40;;;-2.70;99.90;;;;;;4996046;28;20179;-89
2023/01/19 02:33:33;;;;;;;14.77;8.60;;;-2.60;99.90;;;;;;4984866;28;20210;-88
2023/01/19 02:36:01;;;;;;;15.10;9.60;;;-2.70;99.90;;;;;;5015908;28;20268;-89
2023/01/19 02:38:28;;;;;;;15.57;8.97;;;-2.90;99.90;;;;;;5015671;28;20186;-89
2023/01/19 02:40:59;;;;;;;14.63;8.43;;;-2.90;99.90;;;;;;5013865;28;20209;-89
2023/01/19 02:43:27;;;;;;;14.87;9.33;;;-2.90;99.90;;;;;;4999308;28;20217;-89
2023/01/19 02:45:53;;;;;;;14.33;9.90;;;-3.00;99.90;;;;;;5031999;28;20205;-89
2023/01/19 02:48:20;;;;;;;18.37;9.50;;;-3.00;99.90;;;;;;4998996;28;20210;-89
2023/01/19 02:50:49;;;;;;;17.33;10.10;;;-3.00;99.90;;;;;;4999118;28;20622;-89
2023/01/19 02:53:27;;;;;;;25.00;12.93;;;-2.90;99.90;;;;;;4998840;28;20206;-88
2023/01/19 02:56:01;;;;;;;29.03;13.93;;;-3.00;99.90;;;;;;5032981;28;20200;-88
2023/01/19 02:59:01;;;;;;;19.67;10.90;;;-3.10;99.90;;;;;;5015675;28;20183;-89
2023/01/19 03:01:33;;;;;;;14.13;8.43;;;-3.20;99.90;;;;;;4979223;28;20218;-88
2023/01/19 03:04:12;;;;;;;12.57;8.40;;;-3.40;99.90;;;;;;5031696;28;20229;-89
2023/01/19 03:06:41;;;;;;;14.30;9.23;;;-3.30;99.90;;;;;;5015270;28;20178;-89
2023/01/19 03:09:25;;;;;;;13.73;8.03;;;-3.30;99.90;;;;;;5032820;28;20187;-89
2023/01/19 03:12:00;;;;;;;13.73;8.30;;;-3.30;99.90;;;;;;5015428;28;20196;-89
2023/01/19 03:14:29;;;;;;;12.73;8.27;;;-3.20;99.90;;;;;;5031757;28;20230;-89
2023/01/19 03:17:02;;;;;;;11.80;7.73;;;-3.20;99.90;;;;;;5031868;28;20183;-88
2023/01/19 03:19:39;;;;;;;13.13;8.17;;;-3.10;99.90;;;;;;5017158;28;20183;-89
2023/01/19 03:22:17;;;;;;;12.83;7.90;;;-3.10;99.90;;;;;;5035734;28;20178;-89
2023/01/19 03:24:46;;;;;;;15.50;8.23;;;-3.10;99.90;;;;;;5019161;28;20178;-88
2023/01/19 03:27:30;;;;;;;13.07;8.20;;;-3.00;99.90;;;;;;5002052;28;20175;-88
2023/01/19 03:30:03;;;;;;;12.43;8.20;;;-3.00;99.90;;;;;;5002674;28;20163;-88
2023/01/19 03:32:42;;;;;;;13.83;7.77;;;-3.00;99.90;;;;;;5018824;28;20206;-89
2023/01/19 03:35:13;;;;;;;12.33;7.23;;;-2.90;99.90;;;;;;5018643;28;20232;-89
2023/01/19 03:37:43;;;;;;;10.33;6.93;;;-2.90;99.90;;;;;;5019156;28;20243;-89
2023/01/19 03:40:10;;;;;;;14.40;7.57;;;-2.80;99.90;;;;;;5018560;28;20218;-88
2023/01/19 03:42:37;;;;;;;12.43;7.53;;;-2.80;99.90;;;;;;5002193;28;20561;-88
2023/01/19 03:45:04;;;;;;;12.23;7.70;;;-2.80;99.90;;;;;;5018729;28;20232;-89
2023/01/19 03:47:31;;;;;;;10.90;7.50;;;-2.70;99.90;;;;;;5002393;28;20186;-89
2023/01/19 03:49:57;;;;;;;12.63;7.37;;;-2.70;99.90;;;;;;5018689;28;20182;-88
2023/01/19 03:52:28;;;;;;;10.63;7.00;;;-2.70;99.90;;;;;;5001885;28;20179;-89
2023/01/19 03:54:54;;;;;;;11.13;7.03;;;-2.80;99.90;;;;;;5016407;28;20176;-89
2023/01/19 03:57:20;;;;;;;11.97;7.50;;;-2.90;99.90;;;;;;5018237;28;20187;-88
2023/01/19 03:59:46;;;;;;;9.90;7.50;;;-3.00;99.90;;;;;;5001812;28;20229;-89
2023/01/19 04:02:13;;;;;;;12.33;6.90;;;-3.00;99.90;;;;;;5002156;28;20232;-89
2023/01/19 04:04:39;;;;;;;12.67;7.63;;;-3.00;99.90;;;;;;5018117;28;20174;-88
2023/01/19 04:07:05;;;;;;;12.30;7.50;;;-3.00;99.90;;;;;;5006105;28;20262;-88
2023/01/19 04:09:31;;;;;;;12.97;7.83;;;-3.00;99.90;;;;;;5001362;28;20209;-89
2023/01/19 04:11:57;;;;;;;10.60;6.97;;;-3.00;99.90;;;;;;5034034;28;20170;-89
2023/01/19 04:14:23;;;;;;;10.63;6.90;;;-3.10;99.90;;;;;;5018199;28;20203;-88
2023/01/19 04:16:49;;;;;;;12.10;7.13;;;-3.10;99.90;;;;;;5034863;28;20274;-88
2023/01/19 04:19:15;;;;;;;13.00;7.57;;;-3.00;99.90;;;;;;5001382;28;20182;-88
2023/01/19 04:21:41;;;;;;;12.37;7.47;;;-3.00;99.90;;;;;;5014738;28;20214;-88
2023/01/19 04:24:08;;;;;;;17.03;8.40;;;-2.90;99.90;;;;;;5001262;28;20268;-88
2023/01/19 04:26:34;;;;;;;12.57;8.43;;;-2.80;99.90;;;;;;5034220;28;20216;-88
2023/01/19 04:29:00;;;;;;;11.00;7.17;;;-2.80;99.90;;;;;;5017313;28;20217;-88
2023/01/19 04:31:26;;;;;;;10.57;6.63;;;-2.70;99.90;;;;;;5016621;28;20210;-88
2023/01/19 04:33:52;;;;;;;9.47;6.30;;;-2.70;99.90;;;;;;5017472;28;20332;-88
2023/01/19 04:36:18;;;;;;;10.97;6.87;;;-2.60;99.90;;;;;;5001528;28;20212;-88
2023/01/19 04:38:45;;;;;;;9.37;6.83;;;-2.60;99.90;;;;;;5004233;28;20190;-90
2023/01/19 04:41:11;;;;;;;12.63;7.83;;;-2.50;99.90;;;;;;5000477;28;20202;-90
2023/01/19 04:43:40;;;;;;;11.87;7.37;;;-2.50;99.90;;;;;;5028751;28;20204;-90
2023/01/19 04:46:06;;;;;;;10.77;7.23;;;-2.50;99.90;;;;;;4981404;28;20199;-90
2023/01/19 04:48:32;;;;;;;14.80;7.90;;;-2.50;99.90;;;;;;4981699;28;20186;-90
2023/01/19 04:50:58;;;;;;;11.00;7.40;;;-2.50;99.90;;;;;;4999295;28;20182;-89
2023/01/19 04:53:24;;;;;;;11.13;7.10;;;-2.50;99.90;;;;;;5000665;28;20287;-90
2023/01/19 04:55:54;;;;;;;8.73;6.27;;;-2.50;99.90;;;;;;5016848;28;20183;-90
2023/01/19 04:58:20;;;;;;;12.07;7.10;;;-2.50;99.90;;;;;;5016874;28;20182;-88
2023/01/19 05:00:46;;;;;;;14.70;9.97;;;-2.50;99.90;;;;;;4999609;28;20297;-88
2023/01/19 05:03:12;;;;;;;12.83;8.27;;;-2.50;99.90;;;;;;4999968;28;20283;-88
2023/01/19 05:05:38;;;;;;;14.57;8.47;;;-2.50;99.90;;;;;;5016158;28;20205;-88
2023/01/19 05:08:04;;;;;;;13.23;7.50;;;-2.50;99.90;;;;;;5033928;28;20202;-88
2023/01/19 05:10:30;;;;;;;12.27;6.60;;;-2.50;99.90;;;;;;5030262;23;20222;-34
2023/01/19 05:12:56;;;;;;;13.40;7.23;;;-2.50;99.90;;;;;;5032058;28;20197;-32
2023/01/19 05:15:22;;;;;;;11.13;6.83;;;-2.50;99.90;;;;;;5031354;28;20270;-34
2023/01/19 05:17:48;;;;;;;11.37;7.40;;;-2.50;99.90;;;;;;5032442;28;20207;-36
2023/01/19 05:20:14;;;;;;;10.23;6.90;;;-2.50;99.90;;;;;;5014679;28;20187;-32
2023/01/19 05:22:40;;;;;;;8.97;6.93;;;-2.50;99.90;;;;;;5033035;28;20174;-36
2023/01/19 05:25:09;;;;;;;9.90;6.63;;;-2.50;99.90;;;;;;5031266;28;20189;-32
2023/01/19 05:27:36;;;;;;;9.87;6.77;;;-2.50;99.90;;;;;;4997982;28;20200;-32
2023/01/19 05:30:03;;;;;;;13.47;7.87;;;-2.50;99.90;;;;;;5014144;28;20222;-36
2023/01/19 05:32:29;;;;;;;10.87;7.57;;;-2.60;99.90;;;;;;5014320;28;20183;-34
2023/01/19 05:34:55;;;;;;;11.50;7.73;;;-2.70;99.90;;;;;;5031184;28;20193;-34
2023/01/19 05:37:21;;;;;;;10.93;7.17;;;-2.80;99.90;;;;;;5014064;28;20202;-35
2023/01/19 05:39:46;;;;;;;12.40;7.60;;;-2.80;99.90;;;;;;5013944;28;20214;-34
2023/01/19 05:42:12;;;;;;;10.60;6.97;;;-2.90;99.90;;;;;;5009879;28;20183;-33
2023/01/19 05:44:39;;;;;;;11.93;7.27;;;-3.00;99.90;;;;;;5030630;28;20173;-36
2023/01/19 05:47:05;;;;;;;11.87;7.83;;;-3.10;99.90;;;;;;5031116;28;20207;-35
2023/01/19 05:49:31;;;;;;;11.33;6.77;;;-3.10;99.90;;;;;;5014084;28;20175;-35
2023/01/19 05:51:56;;;;;;;8.43;6.40;;;-3.20;99.90;;;;;;5013585;28;20183;-33
2023/01/19 05:54:22;;;;;;;11.07;7.27;;;-3.30;99.90;;;;;;5013138;28;20252;-34
2023/01/19 05:56:48;;;;;;;10.63;7.10;;;-3.40;99.90;;;;;;5031357;28;20174;-36
2023/01/19 05:59:16;;;;;;;11.40;7.50;;;-3.50;99.90;;;;;;5013798;28;20174;-35
2023/01/19 06:01:42;;;;;;;10.67;7.30;;;-3.50;99.90;;;;;;5013625;28;20203;-33
2023/01/19 06:04:07;;;;;;;13.53;7.70;;;-3.50;99.90;;;;;;5031640;28;20183;-36
2023/01/19 06:06:33;;;;;;;12.20;7.87;;;-3.50;99.90;;;;;;5013729;28;20179;-33
2023/01/19 06:08:59;;;;;;;11.90;8.23;;;-3.60;99.90;;;;;;5013392;28;20221;-34
2023/01/19 06:11:25;;;;;;;12.10;7.53;;;-3.60;99.90;;;;;;5029681;28;20202;-33
2023/01/19 06:13:51;;;;;;;11.43;7.50;;;-3.60;99.90;;;;;;5017395;28;20182;-35
2023/01/19 06:16:17;;;;;;;12.63;8.00;;;-3.60;99.90;;;;;;5032770;28;20186;-39
2023/01/19 06:18:42;;;;;;;12.50;7.40;;;-3.60;99.90;;;;;;5019365;28;20203;-33
2023/01/19 06:21:11;;;;;;;12.90;8.07;;;-3.70;99.90;;;;;;5030931;28;20210;-35
2023/01/19 06:23:37;;;;;;;13.17;7.87;;;-3.80;99.90;;;;;;5030523;28;20179;-34
2023/01/19 06:26:03;;;;;;;13.27;8.60;;;-3.90;99.90;;;;;;5029153;28;20186;-33
2023/01/19 06:28:28;;;;;;;12.93;8.20;;;-3.90;99.90;;;;;;5030667;28;20199;-34
2023/01/19 06:30:55;;;;;;;13.77;8.40;;;-3.90;99.90;;;;;;5030764;28;20178;-31
2023/01/19 06:33:22;;;;;;;10.17;7.30;;;-4.00;99.90;;;;;;5013454;28;20190;-34
2023/01/19 06:35:49;;;;;;;12.87;7.73;;;-4.00;99.90;;;;;;5023840;28;20273;-34
2023/01/19 06:38:17;;;;;;;11.07;7.07;;;-4.00;99.90;;;;;;5037170;28;20236;-39
2023/01/19 06:40:43;;;;;;;10.73;7.93;;;-3.90;99.90;;;;;;5013018;28;20293;-35
2023/01/19 06:43:09;;;;;;;12.33;7.60;;;-3.90;99.90;;;;;;5029495;28;20643;-35
2023/01/19 06:45:38;;;;;;;13.47;7.87;;;-3.90;99.90;;;;;;5012787;28;20179;-34
2023/01/19 06:48:04;;;;;;;10.87;7.50;;;-3.80;99.90;;;;;;5030120;28;20216;-33
2023/01/19 06:50:30;;;;;;;10.67;7.50;;;-3.70;99.90;;;;;;5013177;28;20186;-33
2023/01/19 06:52:56;;;;;;;10.67;6.97;;;-3.70;99.90;;;;;;5030767;28;20186;-34
2023/01/19 06:55:22;;;;;;;12.50;8.33;;;-3.70;99.90;;;;;;5017381;28;20197;-37
2023/01/19 06:57:47;;;;;;;12.87;8.63;;;-3.70;99.90;;;;;;5017338;28;20308;-38
2023/01/19 07:00:13;;;;;;;13.43;7.93;;;-3.70;99.90;;;;;;5017017;28;20206;-36
2023/01/19 07:02:42;;;;;;;15.57;9.10;;;-3.80;99.90;;;;;;5001068;28;20185;-33
2023/01/19 07:05:13;;;;;;;33.73;19.93;;;-3.90;99.90;;;;;;5035014;28;20179;-37
2023/01/19 07:07:39;;;;;;;23.13;15.03;;;-4.10;99.90;;;;;;5035101;28;20195;-34
2023/01/19 07:10:10;;;;;;;17.90;11.17;;;-4.10;99.90;;;;;;5015260;28;20270;-33
2023/01/19 07:12:37;;;;;;;16.30;10.13;;;-4.20;99.90;;;;;;5015678;28;20265;-35
2023/01/19 07:15:03;;;;;;;21.23;13.53;;;-4.10;99.90;;;;;;5016095;28;20356;-36
2023/01/19 07:17:29;;;;;;;17.73;11.67;;;-4.00;99.90;;;;;;5032421;28;20234;-33
2023/01/19 07:19:55;;;;;;;16.67;9.77;;;-4.00;99.90;;;;;;4998839;28;20252;-33
2023/01/19 07:22:21;;;;;;;12.10;8.07;;;-4.00;99.90;;;;;;5011732;28;20183;-34
2023/01/19 07:24:51;;;;;;;14.13;8.67;;;-4.00;99.90;;;;;;5031817;28;20185;-39
2023/01/19 07:27:17;;;;;;;14.13;7.97;;;-4.00;99.90;;;;;;5030321;28;20344;-39
2023/01/19 07:29:43;;;;;;;11.00;7.07;;;-4.00;99.90;;;;;;5015873;28;20269;-34
2023/01/19 07:32:09;;;;;;;11.07;7.50;;;-4.00;99.90;;;;;;5034538;28;20171;-36
2023/01/19 07:34:35;;;;;;;11.10;6.43;;;-3.90;99.90;;;;;;5033102;28;20183;-34
2023/01/19 07:37:01;;;;;;;10.93;6.73;;;-3.90;99.90;;;;;;5017053;28;20309;-39
2023/01/19 07:39:27;;;;;;;12.17;7.00;;;-3.80;99.90;;;;;;5016408;28;20193;-38
2023/01/19 07:41:53;;;;;;;9.50;6.43;;;-3.80;99.90;;;;;;5016337;28;20206;-35
2023/01/19 07:44:21;;;;;;;10.23;7.00;;;-3.90;99.90;;;;;;5016615;28;20182;-35
2023/01/19 07:46:49;;;;;;;14.93;7.50;;;-3.80;99.90;;;;;;5016298;28;20179;-34
2023/01/19 07:49:15;;;;;;;10.27;6.43;;;-3.80;99.90;;;;;;5033982;28;20228;-33
2023/01/19 07:51:42;;;;;;;11.27;6.60;;;-3.70;99.90;;;;;;5016560;28;20179;-37
2023/01/19 07:54:08;;;;;;;13.00;7.57;;;-3.70;99.90;;;;;;5032770;28;20203;-35
2023/01/19 07:56:34;;;;;;;11.97;7.20;;;-3.70;99.90;;;;;;5032862;28;20205;-33
2023/01/19 07:59:00;;;;;;;13.07;7.53;;;-3.60;99.90;;;;;;5015775;28;20206;-35
2023/01/19 08:01:26;;;;;;;10.87;7.50;;;-3.50;99.90;;;;;;5015058;28;20714;-35
2023/01/19 08:03:52;;;;;;;13.00;7.50;;;-3.50;99.90;;;;;;5015482;28;20261;-35
2023/01/19 08:06:23;;;;;;;12.03;7.00;;;-3.50;99.90;;;;;;5015631;28;20179;-35
2023/01/19 08:08:49;;;;;;;10.77;6.30;;;-3.50;99.90;;;;;;5028629;28;20183;-33
2023/01/19 08:11:15;;;;;;;11.13;6.60;;;-3.40;99.90;;;;;;5030965;28;20202;-34
2023/01/19 08:13:42;;;;;;;9.30;6.73;;;-3.30;99.90;;;;;;5030434;28;20229;-35
2023/01/19 08:16:09;;;;;;;10.60;6.53;;;-3.30;99.90;;;;;;5032966;28;20186;-37
2023/01/19 08:18:35;;;;;;;10.43;6.60;;;-3.20;99.90;;;;;;5011665;28;20206;-38
2023/01/19 08:21:01;;;;;;;9.57;6.37;;;-3.20;99.90;;;;;;5014556;28;20206;-35
2023/01/19 08:23:28;;;;;;;8.93;6.07;;;-3.10;99.90;;;;;;5025857;28;20190;-37
2023/01/19 08:25:55;;;;;;;11.13;6.37;;;-3.00;99.90;;;;;;5014502;28;20186;-37
2023/01/19 08:28:20;;;;;;;8.47;5.80;;;-2.90;99.90;;;;;;4996601;28;20186;-36
2023/01/19 08:30:52;;;;;;;11.83;6.20;;;-2.80;99.90;;;;;;4996604;28;20190;-35
2023/01/19 08:33:19;;;;;;;7.77;5.60;;;-2.80;99.90;;;;;;5032533;28;20209;-36
2023/01/19 08:35:49;;;;;;;12.80;7.00;;;-2.60;99.90;;;;;;5032698;28;20321;-37
2023/01/19 08:38:16;;;;;;;9.83;5.67;;;-2.50;99.90;;;;;;5030978;28;20233;-35
2023/01/19 08:40:43;;;;;;;8.83;6.40;;;-2.50;99.90;;;;;;5012734;28;20202;-38
2023/01/19 08:43:14;;;;;;;9.10;5.87;;;-2.40;99.90;;;;;;5030768;28;20174;-35
2023/01/19 08:45:47;;;;;;;9.67;6.13;;;-2.20;99.90;;;;;;5032818;28;20178;-35
2023/01/19 08:48:14;;;;;;;9.57;6.13;;;-2.10;99.90;;;;;;5014593;28;20760;-34
2023/01/19 08:50:40;;;;;;;8.80;5.90;;;-2.00;99.90;;;;;;5013942;28;20643;-33
2023/01/19 08:53:07;;;;;;;9.63;6.00;;;-2.00;99.90;;;;;;5032086;28;20183;-35
2023/01/19 08:55:35;;;;;;;9.47;5.67;;;-1.90;99.90;;;;;;5011819;28;20250;-37
2023/01/19 08:58:04;;;;;;;7.53;5.50;;;-1.80;99.90;;;;;;5031075;28;20273;-39
2023/01/19 09:00:36;;;;;;;7.90;5.63;;;-1.70;99.90;;;;;;5032653;28;20214;-34
2023/01/19 09:03:09;;;;;;;8.73;5.33;;;-1.60;99.90;;;;;;4995088;28;20184;-32
2023/01/19 09:05:38;;;;;;;8.70;5.30;;;-1.50;99.90;;;;;;5015423;28;20180;-36
2023/01/19 09:08:08;;;;;;;6.57;4.73;;;-1.50;99.90;;;;;;5014508;28;20190;-33
2023/01/19 09:10:36;;;;;;;9.67;5.40;;;-1.40;99.90;;;;;;5031035;28;20194;-35
2023/01/19 09:13:08;;;;;;;7.50;5.30;;;-1.40;99.90;;;;;;5035131;28;20205;-34
2023/01/19 09:15:36;;;;;;;8.20;5.70;;;-1.30;99.90;;;;;;5014678;28;20186;-34
2023/01/19 09:18:09;;;;;;;8.23;5.37;;;-1.30;99.90;;;;;;5030731;28;20214;-38
2023/01/19 09:20:37;;;;;;;8.17;5.50;;;-1.20;99.90;;;;;;5032366;28;20237;-36
2023/01/19 09:23:04;;;;;;;9.67;5.73;;;-1.20;99.90;;;;;;5032249;28;20182;-36
2023/01/19 09:25:31;;;;;;;8.03;6.03;;;-1.20;99.90;;;;;;4998449;28;20237;-38
2023/01/19 09:27:59;;;;;;;8.33;5.70;;;-1.10;99.90;;;;;;5031922;28;20195;-34
2023/01/19 09:30:26;;;;;;;12.07;6.97;;;-1.00;99.90;;;;;;5030937;28;20179;-38
2023/01/19 09:32:52;;;;;;;9.70;6.20;;;-0.80;99.90;;;;;;5031093;28;20593;-33
2023/01/19 09:35:18;;;;;;;9.73;5.77;;;-0.70;99.90;;;;;;5047233;28;20182;-34
2023/01/19 09:37:47;;;;;;;12.67;6.87;;;-0.60;99.90;;;;;;5030923;28;20244;-35
2023/01/19 09:40:14;;;;;;;7.70;5.33;;;-0.40;99.90;;;;;;5024637;28;20218;-35
2023/01/19 09:42:58;;;;;;;10.57;6.37;;;-0.20;99.90;;;;;;5022183;28;20271;-37
2023/01/19 09:45:59;;;;;;;12.63;7.87;;;-0.10;99.90;;;;;;5014241;28;20215;-36
2023/01/19 09:48:44;;;;;;;10.83;6.60;;;-0.10;99.90;;;;;;4981609;28;20606;-38
2023/01/19 09:51:17;;;;;;;9.10;5.90;;;-0.10;99.90;;;;;;5031465;28;20180;-35
2023/01/19 09:53:50;;;;;;;9.07;5.83;;;-0.10;99.90;;;;;;5013963;28;20192;-38
2023/01/19 09:56:19;;;;;;;8.30;5.50;;;-0.20;99.90;;;;;;5014194;28;20184;-35
2023/01/19 09:58:46;;;;;;;9.27;5.40;;;-0.20;99.90;;;;;;5031969;28;20204;-36
2023/01/19 10:01:24;;;;;;;8.13;5.37;;;-0.20;99.90;;;;;;5013865;28;20250;-36
2023/01/19 10:04:07;;;;;;;8.00;5.50;;;-0.30;99.90;;;;;;5031935;28;20182;-36
2023/01/19 10:06:33;;;;;;;8.57;5.37;;;-0.40;99.90;;;;;;5030623;28;20178;-37
2023/01/19 10:09:18;;;;;;;9.77;6.47;;;-0.50;99.90;;;;;;5031450;28;20195;-38
2023/01/19 10:12:01;;;;;;;11.87;7.23;;;-0.40;99.90;;;;;;5011975;28;20180;-38
2023/01/19 10:14:41;;;;;;;9.60;5.67;;;-0.40;99.90;;;;;;5009510;28;20187;-35
2023/01/19 10:17:35;;;;;;;8.67;5.47;;;-0.40;99.90;;;;;;5029373;28;20207;-38
2023/01/19 10:20:02;;;;;;;7.03;5.00;;;-0.40;99.90;;;;;;5013366;28;20267;-37
2023/01/19 10:22:28;;;;;;;19.10;10.10;;;-0.30;99.90;;;;;;5029284;28;20262;-34
2023/01/19 10:25:04;;;;;;;13.93;8.70;;;-0.30;99.90;;;;;;5030570;28;20245;-34
2023/01/19 10:27:34;;;;;;;8.97;5.70;;;-0.30;99.90;;;;;;4993837;28;20207;-37
2023/01/19 10:30:01;;;;;;;7.53;5.20;;;-0.20;99.90;;;;;;5031528;28;20187;-35
2023/01/19 10:32:32;;;;;;;7.73;5.07;;;-0.10;99.90;;;;;;5051311;28;20665;-34
2023/01/19 10:34:59;;;;;;;11.40;6.33;;;0.00;99.90;;;;;;5049958;28;20180;-36
2023/01/19 10:37:43;;;;;;;8.77;6.33;;;0.00;99.90;;;;;;5049246;28;20208;-35
2023/01/19 10:40:09;;;;;;;8.87;5.50;;;0.10;99.90;;;;;;5024485;28;20669;-37
2023/01/19 10:42:37;;;;;;;7.03;5.17;;;0.20;99.90;;;;;;5033180;28;20187;-36
2023/01/19 10:45:17;;;;;;;7.20;5.10;;;0.10;99.90;;;;;;5029816;28;20185;-36
2023/01/19 10:47:43;;;;;;;6.90;5.10;;;0.30;99.90;;;;;;5030000;28;20196;-38
2023/01/19 10:50:27;;;;;;;10.60;5.07;;;0.40;99.90;;;;;;5013373;28;20282;-35
2023/01/19 10:52:54;;;;;;;8.47;4.73;;;0.50;99.90;;;;;;5031224;28;20192;-36
2023/01/19 10:55:28;;;;;;;7.23;5.13;;;0.60;99.90;;;;;;5030691;28;20263;-36
2023/01/19 10:57:57;;;;;;;11.33;5.20;;;0.60;99.90;;;;;;5036631;28;20201;-35
2023/01/19 11:00:49;;;;;;;7.63;5.10;;;0.70;99.90;;;;;;5030495;28;20213;-35
2023/01/19 11:03:28;;;;;;;8.87;5.90;;;0.80;99.90;;;;;;5012950;28;20196;-38
2023/01/19 11:06:14;;;;;;;9.70;6.13;;;0.90;99.90;;;;;;5032754;28;20198;-38
2023/01/19 11:08:41;;;;;;;8.13;5.63;;;0.90;99.90;;;;;;5031832;28;20211;-36
2023/01/19 11:11:08;;;;;;;10.17;6.00;;;0.90;99.90;;;;;;5028713;28;20208;-34
2023/01/19 11:13:35;;;;;;;8.93;5.77;;;1.20;99.90;;;;;;5012844;28;20277;-37
2023/01/19 11:16:27;;;;;;;10.60;6.37;;;1.40;99.90;;;;;;4996755;28;20181;-37
2023/01/19 11:18:55;;;;;;;7.80;5.53;;;1.60;99.90;;;;;;5012890;28;20229;-36
2023/01/19 11:21:25;;;;;;;7.97;4.73;;;1.80;99.90;;;;;;5029534;28;20209;-38
2023/01/19 11:24:07;;;;;;;5.33;4.50;;;2.00;99.90;;;;;;5264774;23;20250;-86
2023/01/19 11:26:43;;;;;;;7.57;4.60;;;2.10;99.90;;;;;;5010723;28;20203;-86
2023/01/19 11:29:25;;;;;;;5.93;4.60;;;2.00;99.90;;;;;;5010254;28;20184;-85
2023/01/19 11:31:52;;;;;;;6.30;4.40;;;2.10;99.90;;;;;;5010593;28;20213;-86
2023/01/19 11:34:35;;;;;;;6.80;4.33;;;2.00;99.90;;;;;;5028187;28;20248;-86
2023/01/19 11:37:23;;;;;;;6.80;4.70;;;2.00;99.90;;;;;;5030636;28;20182;-86
2023/01/19 11:39:51;;;;;;;7.07;4.90;;;1.80;99.90;;;;;;5009620;28;20190;-86
2023/01/19 11:42:18;;;;;;;7.07;4.90;;;1.80;99.90;;;;;;5022023;28;20246;-86
2023/01/19 11:44:58;;;;;;;10.73;6.03;;;1.80;99.90;;;;;;5015307;28;20178;-86
2023/01/19 11:47:38;;;;;;;8.20;4.93;;;1.90;99.90;;;;;;5017511;28;20785;-85
2023/01/19 11:50:14;;;;;;;9.37;5.37;;;2.00;99.90;;;;;;5017637;28;20171;-86
2023/01/19 11:52:54;;;;;;;9.33;5.60;;;2.10;99.90;;;;;;5034184;28;20717;-86
2023/01/19 11:56:00;;;;;;;11.23;5.50;;;2.10;99.90;;;;;;5017449;28;20186;-86
2023/01/19 11:58:26;;;;;;;8.63;4.97;;;2.00;99.90;;;;;;5034097;28;20552;-85
2023/01/19 12:01:03;;;;;;;10.40;5.70;;;2.00;99.90;;;;;;5033574;28;20207;-86
2023/01/19 12:03:40;;;;;;;10.03;6.13;;;2.00;99.90;;;;;;5034123;28;20217;-86
2023/01/19 12:06:17;;;;;;;8.07;4.60;;;2.00;99.90;;;;;;5035197;28;20177;-86
2023/01/19 12:09:09;;;;;;;8.80;5.30;;;2.00;99.90;;;;;;5033643;28;20258;-86
2023/01/19 12:11:43;;;;;;;8.93;5.47;;;2.00;99.90;;;;;;5013263;28;20194;-86
2023/01/19 12:14:17;;;;;;;6.70;4.43;;;2.00;99.90;;;;;;5013876;28;20232;-86
2023/01/19 12:16:45;;;;;;;7.17;5.03;;;2.00;99.90;;;;;;5015604;28;20207;-86
2023/01/19 12:19:23;;;;;;;8.60;4.80;;;2.00;99.90;;;;;;5013472;28;20182;-86
2023/01/19 12:21:51;;;;;;;5.87;3.63;;;2.00;99.90;;;;;;4981329;28;20214;-86
2023/01/19 12:24:35;;;;;;;5.40;3.70;;;1.90;99.90;;;;;;5014955;28;20203;-86
2023/01/19 12:27:15;;;;;;;10.37;5.67;;;1.90;99.90;;;;;;5011117;28;20171;-86
2023/01/19 12:29:42;;;;;;;7.17;4.93;;;1.80;99.90;;;;;;5016715;28;20162;-86
2023/01/19 12:32:18;;;;;;;8.93;4.73;;;1.90;99.90;;;;;;5032916;28;20178;-86
2023/01/19 12:34:45;;;;;;;7.97;5.50;;;1.80;99.90;;;;;;5016226;28;20182;-86
2023/01/19 12:37:29;;;;;;;6.00;4.33;;;1.90;99.90;;;;;;5033884;28;20181;-86
2023/01/19 12:40:26;;;;;;;7.80;5.60;;;1.90;99.90;;;;;;5016105;28;20178;-86
2023/01/19 12:43:02;;;;;;;9.20;5.67;;;1.90;99.90;;;;;;5016348;28;20212;-86
2023/01/19 12:45:33;;;;;;;7.87;4.80;;;2.00;99.90;;;;;;5000158;28;20170;-86
2023/01/19 12:48:01;;;;;;;6.27;4.37;;;2.00;99.90;;;;;;5016210;28;20190;-87
2023/01/19 12:50:36;;;;;;;5.57;3.77;;;2.00;99.90;;;;;;5015900;28;20213;-86
2023/01/19 12:53:07;;;;;;;9.37;4.67;;;2.00;99.90;;;;;;4999101;28;20201;-86
2023/01/19 12:55:37;;;;;;;7.17;4.90;;;2.10;99.90;;;;;;5017590;28;20183;-86
2023/01/19 12:58:17;;;;;;;5.70;4.27;;;2.10;99.90;;;;;;5015832;28;20190;-86
2023/01/19 13:00:46;;;;;;;5.00;3.37;;;2.10;99.90;;;;;;5015529;28;20221;-87
2023/01/19 13:03:18;;;;;;;5.37;3.40;;;2.00;99.90;;;;;;5015400;28;20200;-86